sensor_id;sensor_type;location;lat;lon;timestamp;P1;durP1;ratioP1;P2;durP2;ratioP2
1785;SDS011;890;48.158;11.540;2023-02-10T00:00:13;6.63;;;4.47;;
1785;SDS011;890;48.158;11.540;2023-02-10T00:02:39;7.03;;;5.17;;
1785;SDS011;890;48.158;11.540;2023-02-10T00:05:04;4.30;;;3.80;;
1785;SDS011;890;48.158;11.540;2023-02-10T00:07:30;10.03;;;6.47;;
1785;SDS011;890;48.158;11.540;2023-02-10T00:09:56;16.80;;;5.50;;
1785;SDS011;890;48.158;11.540;2023-02-10T00:12:21;9.53;;;5.03;;
1785;SDS011;890;48.158;11.540;2023-02-10T00:14:47;7.90;;;6.00;;
1785;SDS011;890;48.158;11.540;2023-02-10T00:17:13;6.07;;;4.40;;
1785;SDS011;890;48.158;11.540;2023-02-10T00:19:42;9.10;;;5.93;;
1785;SDS011;890;48.158;11.540;2023-02-10T00:22:07;8.40;;;6.10;;
1785;SDS011;890;48.158;11.540;2023-02-10T00:24:33;8.50;;;4.47;;
1785;SDS011;890;48.158;11.540;2023-02-10T00:26:59;12.67;;;4.90;;
1785;SDS011;890;48.158;11.540;2023-02-10T00:29:25;9.30;;;5.00;;
1785;SDS011;890;48.158;11.540;2023-02-10T00:31:51;7.63;;;5.33;;
1785;SDS011;890;48.158;11.540;2023-02-10T00:34:17;6.63;;;5.23;;
1785;SDS011;890;48.158;11.540;2023-02-10T00:36:43;10.30;;;4.90;;
1785;SDS011;890;48.158;11.540;2023-02-10T00:39:12;7.30;;;6.10;;
1785;SDS011;890;48.158;11.540;2023-02-10T00:41:39;10.70;;;6.70;;
1785;SDS011;890;48.158;11.540;2023-02-10T00:44:05;7.27;;;5.37;;
1785;SDS011;890;48.158;11.540;2023-02-10T00:46:31;8.00;;;5.60;;
1785;SDS011;890;48.158;11.540;2023-02-10T00:48:56;8.33;;;4.53;;
1785;SDS011;890;48.158;11.540;2023-02-10T00:51:22;7.27;;;4.83;;
1785;SDS011;890;48.158;11.540;2023-02-10T00:53:48;10.30;;;4.10;;
1785;SDS011;890;48.158;11.540;2023-02-10T00:56:18;12.90;;;5.80;;
1785;SDS011;890;48.158;11.540;2023-02-10T00:58:45;5.53;;;4.33;;
1785;SDS011;890;48.158;11.540;2023-02-10T01:01:11;7.17;;;5.40;;
1785;SDS011;890;48.158;11.540;2023-02-10T01:03:37;7.30;;;5.27;;
1785;SDS011;890;48.158;11.540;2023-02-10T01:06:03;12.07;;;5.00;;
1785;SDS011;890;48.158;11.540;2023-02-10T01:08:29;5.80;;;4.00;;
1785;SDS011;890;48.158;11.540;2023-02-10T01:11:05;7.13;;;6.43;;
1785;SDS011;890;48.158;11.540;2023-02-10T01:13:33;12.10;;;6.10;;
1785;SDS011;890;48.158;11.540;2023-02-10T01:16:00;5.77;;;5.17;;
1785;SDS011;890;48.158;11.540;2023-02-10T01:18:30;6.83;;;4.83;;
1785;SDS011;890;48.158;11.540;2023-02-10T01:20:56;6.53;;;4.27;;
1785;SDS011;890;48.158;11.540;2023-02-10T01:23:22;7.20;;;3.90;;
1785;SDS011;890;48.158;11.540;2023-02-10T01:25:48;6.13;;;4.63;;
1785;SDS011;890;48.158;11.540;2023-02-10T01:28:13;7.70;;;5.67;;
1785;SDS011;890;48.158;11.540;2023-02-10T01:30:39;5.83;;;4.20;;
1785;SDS011;890;48.158;11.540;2023-02-10T01:33:04;5.63;;;4.20;;
1785;SDS011;890;48.158;11.540;2023-02-10T01:35:30;9.37;;;5.00;;
1785;SDS011;890;48.158;11.540;2023-02-10T01:37:56;6.03;;;4.80;;
1785;SDS011;890;48.158;11.540;2023-02-10T01:40:23;9.00;;;7.57;;
1785;SDS011;890;48.158;11.540;2023-02-10T01:42:50;11.40;;;6.47;;
1785;SDS011;890;48.158;11.540;2023-02-10T01:45:17;6.50;;;5.17;;
1785;SDS011;890;48.158;11.540;2023-02-10T01:47:50;9.77;;;7.13;;
1785;SDS011;890;48.158;11.540;2023-02-10T01:50:17;6.83;;;3.90;;
1785;SDS011;890;48.158;11.540;2023-02-10T01:52:45;8.30;;;5.93;;
1785;SDS011;890;48.158;11.540;2023-02-10T01:55:15;6.73;;;5.07;;
1785;SDS011;890;48.158;11.540;2023-02-10T01:57:44;8.70;;;6.03;;
1785;SDS011;890;48.158;11.540;2023-02-10T02:00:10;5.03;;;4.17;;
1785;SDS011;890;48.158;11.540;2023-02-10T02:02:37;6.33;;;4.37;;
1785;SDS011;890;48.158;11.540;2023-02-10T02:05:05;12.27;;;5.43;;
1785;SDS011;890;48.158;11.540;2023-02-10T02:07:33;7.60;;;5.13;;
1785;SDS011;890;48.158;11.540;2023-02-10T02:10:02;6.30;;;4.53;;
1785;SDS011;890;48.158;11.540;2023-02-10T02:12:34;11.00;;;4.73;;
1785;SDS011;890;48.158;11.540;2023-02-10T02:32:37;17.40;;;6.30;;
1785;SDS011;890;48.158;11.540;2023-02-10T02:35:28;10.90;;;4.83;;
1785;SDS011;890;48.158;11.540;2023-02-10T02:38:11;8.17;;;5.60;;
1785;SDS011;890;48.158;11.540;2023-02-10T02:40:37;6.17;;;4.53;;
1785;SDS011;890;48.158;11.540;2023-02-10T02:43:03;7.13;;;4.37;;
1785;SDS011;890;48.158;11.540;2023-02-10T02:45:36;3.33;;;3.03;;
1785;SDS011;890;48.158;11.540;2023-02-10T02:51:05;5.87;;;4.17;;
1785;SDS011;890;48.158;11.540;2023-02-10T02:56:32;6.53;;;3.23;;
1785;SDS011;890;48.158;11.540;2023-02-10T03:02:01;6.93;;;4.97;;
1785;SDS011;890;48.158;11.540;2023-02-10T03:04:32;8.70;;;4.13;;
1785;SDS011;890;48.158;11.540;2023-02-10T03:06:59;8.73;;;4.17;;
1785;SDS011;890;48.158;11.540;2023-02-10T03:09:25;3.90;;;3.33;;
1785;SDS011;890;48.158;11.540;2023-02-10T03:11:52;7.43;;;4.73;;
1785;SDS011;890;48.158;11.540;2023-02-10T03:14:18;10.90;;;5.80;;
1785;SDS011;890;48.158;11.540;2023-02-10T03:16:43;8.30;;;4.83;;
1785;SDS011;890;48.158;11.540;2023-02-10T03:19:09;2.83;;;2.57;;
1785;SDS011;890;48.158;11.540;2023-02-10T03:21:35;7.00;;;4.43;;
1785;SDS011;890;48.158;11.540;2023-02-10T03:24:01;8.33;;;3.60;;
1785;SDS011;890;48.158;11.540;2023-02-10T03:26:30;5.80;;;3.73;;
1785;SDS011;890;48.158;11.540;2023-02-10T03:28:56;5.83;;;4.03;;
1785;SDS011;890;48.158;11.540;2023-02-10T03:31:22;6.27;;;4.83;;
1785;SDS011;890;48.158;11.540;2023-02-10T03:33:48;6.57;;;5.10;;
1785;SDS011;890;48.158;11.540;2023-02-10T03:36:14;14.57;;;4.90;;
1785;SDS011;890;48.158;11.540;2023-02-10T03:38:40;5.40;;;4.23;;
1785;SDS011;890;48.158;11.540;2023-02-10T03:41:06;10.37;;;4.60;;
1785;SDS011;890;48.158;11.540;2023-02-10T03:43:31;5.27;;;4.00;;
1785;SDS011;890;48.158;11.540;2023-02-10T03:46:01;6.23;;;4.00;;
1785;SDS011;890;48.158;11.540;2023-02-10T03:48:28;5.57;;;3.70;;
1785;SDS011;890;48.158;11.540;2023-02-10T03:51:06;4.77;;;3.90;;
1785;SDS011;890;48.158;11.540;2023-02-10T03:53:35;6.30;;;4.53;;
1785;SDS011;890;48.158;11.540;2023-02-10T03:56:01;5.20;;;4.30;;
1785;SDS011;890;48.158;11.540;2023-02-10T03:58:27;10.30;;;4.50;;
1785;SDS011;890;48.158;11.540;2023-02-10T04:00:52;5.40;;;4.53;;
1785;SDS011;890;48.158;11.540;2023-02-10T04:03:27;8.37;;;5.23;;
1785;SDS011;890;48.158;11.540;2023-02-10T04:05:53;5.40;;;4.47;;
1785;SDS011;890;48.158;11.540;2023-02-10T04:08:18;7.00;;;5.03;;
1785;SDS011;890;48.158;11.540;2023-02-10T04:10:44;6.93;;;4.77;;
1785;SDS011;890;48.158;11.540;2023-02-10T04:13:10;6.90;;;4.83;;
1785;SDS011;890;48.158;11.540;2023-02-10T04:15:35;11.87;;;5.93;;
1785;SDS011;890;48.158;11.540;2023-02-10T04:18:02;6.13;;;4.73;;
1785;SDS011;890;48.158;11.540;2023-02-10T04:20:27;10.33;;;5.10;;
1785;SDS011;890;48.158;11.540;2023-02-10T04:22:53;5.60;;;3.60;;
1785;SDS011;890;48.158;11.540;2023-02-10T04:25:18;8.50;;;3.87;;
1785;SDS011;890;48.158;11.540;2023-02-10T04:27:44;10.07;;;4.70;;
1785;SDS011;890;48.158;11.540;2023-02-10T04:30:10;6.80;;;4.00;;
1785;SDS011;890;48.158;11.540;2023-02-10T04:32:36;11.23;;;4.73;;
1785;SDS011;890;48.158;11.540;2023-02-10T04:35:01;7.70;;;4.90;;
1785;SDS011;890;48.158;11.540;2023-02-10T04:37:27;4.00;;;3.27;;
1785;SDS011;890;48.158;11.540;2023-02-10T04:39:53;12.03;;;4.47;;
1785;SDS011;890;48.158;11.540;2023-02-10T04:42:19;3.80;;;3.40;;
1785;SDS011;890;48.158;11.540;2023-02-10T04:44:54;7.00;;;3.93;;
1785;SDS011;890;48.158;11.540;2023-02-10T04:47:21;5.03;;;4.10;;
1785;SDS011;890;48.158;11.540;2023-02-10T04:49:47;8.00;;;4.70;;
1785;SDS011;890;48.158;11.540;2023-02-10T04:52:13;8.50;;;4.20;;
1785;SDS011;890;48.158;11.540;2023-02-10T04:54:38;5.63;;;4.40;;
1785;SDS011;890;48.158;11.540;2023-02-10T04:57:04;5.40;;;4.10;;
1785;SDS011;890;48.158;11.540;2023-02-10T04:59:29;9.47;;;4.70;;
1785;SDS011;890;48.158;11.540;2023-02-10T05:01:55;4.60;;;4.20;;
1785;SDS011;890;48.158;11.540;2023-02-10T05:04:20;5.13;;;3.77;;
1785;SDS011;890;48.158;11.540;2023-02-10T05:06:46;7.13;;;4.67;;
1785;SDS011;890;48.158;11.540;2023-02-10T05:09:12;5.40;;;2.63;;
1785;SDS011;890;48.158;11.540;2023-02-10T05:11:38;4.20;;;3.10;;
1785;SDS011;890;48.158;11.540;2023-02-10T05:14:04;4.93;;;3.90;;
1785;SDS011;890;48.158;11.540;2023-02-10T05:16:30;5.80;;;4.40;;
1785;SDS011;890;48.158;11.540;2023-02-10T05:18:55;6.27;;;4.20;;
1785;SDS011;890;48.158;11.540;2023-02-10T05:21:21;4.23;;;3.50;;
1785;SDS011;890;48.158;11.540;2023-02-10T05:23:47;8.33;;;4.60;;
1785;SDS011;890;48.158;11.540;2023-02-10T05:26:12;5.47;;;4.30;;
1785;SDS011;890;48.158;11.540;2023-02-10T05:28:38;6.63;;;3.60;;
1785;SDS011;890;48.158;11.540;2023-02-10T05:31:04;7.77;;;4.57;;
1785;SDS011;890;48.158;11.540;2023-02-10T05:33:31;2.53;;;2.33;;
1785;SDS011;890;48.158;11.540;2023-02-10T05:35:58;6.00;;;4.00;;
1785;SDS011;890;48.158;11.540;2023-02-10T05:38:23;6.00;;;4.93;;
1785;SDS011;890;48.158;11.540;2023-02-10T05:40:51;8.43;;;5.30;;
1785;SDS011;890;48.158;11.540;2023-02-10T05:43:17;9.80;;;6.43;;
1785;SDS011;890;48.158;11.540;2023-02-10T05:45:45;4.07;;;3.67;;
1785;SDS011;890;48.158;11.540;2023-02-10T05:48:11;6.83;;;4.47;;
1785;SDS011;890;48.158;11.540;2023-02-10T05:50:36;4.43;;;3.40;;
1785;SDS011;890;48.158;11.540;2023-02-10T05:53:04;12.00;;;5.00;;
1785;SDS011;890;48.158;11.540;2023-02-10T05:55:31;4.40;;;3.43;;
1785;SDS011;890;48.158;11.540;2023-02-10T05:57:57;5.17;;;2.97;;
1785;SDS011;890;48.158;11.540;2023-02-10T06:00:22;5.03;;;4.40;;
1785;SDS011;890;48.158;11.540;2023-02-10T06:02:48;5.83;;;3.47;;
1785;SDS011;890;48.158;11.540;2023-02-10T06:05:14;4.73;;;3.53;;
1785;SDS011;890;48.158;11.540;2023-02-10T06:07:40;6.73;;;3.40;;
1785;SDS011;890;48.158;11.540;2023-02-10T06:10:06;4.50;;;3.30;;
1785;SDS011;890;48.158;11.540;2023-02-10T06:12:31;3.33;;;3.00;;
1785;SDS011;890;48.158;11.540;2023-02-10T06:14:57;4.40;;;3.77;;
1785;SDS011;890;48.158;11.540;2023-02-10T06:17:23;6.37;;;5.70;;
1785;SDS011;890;48.158;11.540;2023-02-10T06:19:50;4.33;;;3.20;;
1785;SDS011;890;48.158;11.540;2023-02-10T06:22:16;3.43;;;3.03;;
1785;SDS011;890;48.158;11.540;2023-02-10T06:24:42;8.33;;;5.03;;
1785;SDS011;890;48.158;11.540;2023-02-10T06:27:08;5.60;;;3.63;;
1785;SDS011;890;48.158;11.540;2023-02-10T06:29:33;4.93;;;3.07;;
1785;SDS011;890;48.158;11.540;2023-02-10T06:31:59;8.80;;;4.10;;
1785;SDS011;890;48.158;11.540;2023-02-10T06:34:25;5.00;;;4.50;;
1785;SDS011;890;48.158;11.540;2023-02-10T06:36:51;4.67;;;2.80;;
1785;SDS011;890;48.158;11.540;2023-02-10T06:39:16;7.00;;;3.60;;
1785;SDS011;890;48.158;11.540;2023-02-10T06:41:42;6.70;;;2.73;;
1785;SDS011;890;48.158;11.540;2023-02-10T06:44:07;4.77;;;3.87;;
1785;SDS011;890;48.158;11.540;2023-02-10T06:46:33;4.97;;;3.90;;
1785;SDS011;890;48.158;11.540;2023-02-10T06:48:59;4.27;;;2.93;;
1785;SDS011;890;48.158;11.540;2023-02-10T06:51:26;2.97;;;2.10;;
1785;SDS011;890;48.158;11.540;2023-02-10T06:53:52;8.10;;;5.50;;
1785;SDS011;890;48.158;11.540;2023-02-10T06:56:17;6.40;;;5.50;;
1785;SDS011;890;48.158;11.540;2023-02-10T06:58:43;3.87;;;3.50;;
1785;SDS011;890;48.158;11.540;2023-02-10T07:01:10;3.23;;;2.93;;
1785;SDS011;890;48.158;11.540;2023-02-10T07:03:37;4.10;;;3.23;;
1785;SDS011;890;48.158;11.540;2023-02-10T07:06:03;5.33;;;3.43;;
1785;SDS011;890;48.158;11.540;2023-02-10T07:08:29;4.43;;;3.50;;
1785;SDS011;890;48.158;11.540;2023-02-10T07:10:54;3.33;;;2.93;;
1785;SDS011;890;48.158;11.540;2023-02-10T07:13:20;5.07;;;3.40;;
1785;SDS011;890;48.158;11.540;2023-02-10T07:15:46;3.33;;;2.43;;
1785;SDS011;890;48.158;11.540;2023-02-10T07:18:11;4.83;;;4.23;;
1785;SDS011;890;48.158;11.540;2023-02-10T07:20:37;5.10;;;3.67;;
1785;SDS011;890;48.158;11.540;2023-02-10T07:23:03;5.20;;;4.70;;
1785;SDS011;890;48.158;11.540;2023-02-10T07:25:28;8.10;;;4.97;;
1785;SDS011;890;48.158;11.540;2023-02-10T07:27:54;5.93;;;3.70;;
1785;SDS011;890;48.158;11.540;2023-02-10T07:30:19;4.57;;;3.07;;
1785;SDS011;890;48.158;11.540;2023-02-10T07:32:45;6.63;;;4.27;;
1785;SDS011;890;48.158;11.540;2023-02-10T07:35:12;5.80;;;3.13;;
1785;SDS011;890;48.158;11.540;2023-02-10T07:37:38;5.80;;;5.30;;
1785;SDS011;890;48.158;11.540;2023-02-10T07:40:04;11.67;;;4.00;;
1785;SDS011;890;48.158;11.540;2023-02-10T07:42:30;6.57;;;3.10;;
1785;SDS011;890;48.158;11.540;2023-02-10T07:44:57;6.53;;;4.73;;
1785;SDS011;890;48.158;11.540;2023-02-10T07:47:23;9.80;;;5.07;;
1785;SDS011;890;48.158;11.540;2023-02-10T07:49:48;6.13;;;3.90;;
1785;SDS011;890;48.158;11.540;2023-02-10T07:52:16;5.97;;;3.93;;
1785;SDS011;890;48.158;11.540;2023-02-10T07:54:41;7.03;;;4.90;;
1785;SDS011;890;48.158;11.540;2023-02-10T07:57:07;9.83;;;6.83;;
1785;SDS011;890;48.158;11.540;2023-02-10T07:59:33;6.87;;;5.20;;
1785;SDS011;890;48.158;11.540;2023-02-10T08:01:58;17.57;;;11.93;;
1785;SDS011;890;48.158;11.540;2023-02-10T08:04:24;11.77;;;7.40;;
1785;SDS011;890;48.158;11.540;2023-02-10T08:06:50;6.47;;;4.30;;
1785;SDS011;890;48.158;11.540;2023-02-10T08:09:16;6.57;;;4.60;;
1785;SDS011;890;48.158;11.540;2023-02-10T08:11:42;6.53;;;4.63;;
1785;SDS011;890;48.158;11.540;2023-02-10T08:14:08;8.63;;;5.77;;
1785;SDS011;890;48.158;11.540;2023-02-10T08:16:33;6.47;;;4.17;;
1785;SDS011;890;48.158;11.540;2023-02-10T08:18:59;7.57;;;4.93;;
1785;SDS011;890;48.158;11.540;2023-02-10T08:21:25;8.57;;;3.80;;
1785;SDS011;890;48.158;11.540;2023-02-10T08:23:52;6.70;;;4.40;;
1785;SDS011;890;48.158;11.540;2023-02-10T08:26:20;8.97;;;4.73;;
1785;SDS011;890;48.158;11.540;2023-02-10T08:28:46;4.63;;;3.87;;
1785;SDS011;890;48.158;11.540;2023-02-10T08:31:11;4.40;;;3.53;;
1785;SDS011;890;48.158;11.540;2023-02-10T08:33:38;7.40;;;4.20;;
1785;SDS011;890;48.158;11.540;2023-02-10T08:36:05;3.47;;;3.13;;
1785;SDS011;890;48.158;11.540;2023-02-10T08:38:33;7.80;;;4.57;;
1785;SDS011;890;48.158;11.540;2023-02-10T08:40:59;19.57;;;3.30;;
1785;SDS011;890;48.158;11.540;2023-02-10T08:43:25;6.23;;;4.57;;
1785;SDS011;890;48.158;11.540;2023-02-10T08:45:54;6.50;;;4.67;;
1785;SDS011;890;48.158;11.540;2023-02-10T08:48:23;7.40;;;5.13;;
1785;SDS011;890;48.158;11.540;2023-02-10T08:50:50;6.93;;;4.03;;
1785;SDS011;890;48.158;11.540;2023-02-10T08:53:19;11.17;;;5.50;;
1785;SDS011;890;48.158;11.540;2023-02-10T08:55:55;6.60;;;4.30;;
1785;SDS011;890;48.158;11.540;2023-02-10T08:58:21;5.17;;;3.90;;
1785;SDS011;890;48.158;11.540;2023-02-10T09:00:47;6.53;;;4.43;;
1785;SDS011;890;48.158;11.540;2023-02-10T09:03:12;15.17;;;11.20;;
1785;SDS011;890;48.158;11.540;2023-02-10T09:05:39;14.73;;;10.10;;
1785;SDS011;890;48.158;11.540;2023-02-10T09:08:04;15.90;;;10.43;;
1785;SDS011;890;48.158;11.540;2023-02-10T09:10:30;15.77;;;9.27;;
1785;SDS011;890;48.158;11.540;2023-02-10T09:12:55;13.70;;;10.10;;
1785;SDS011;890;48.158;11.540;2023-02-10T09:15:21;15.20;;;9.83;;
1785;SDS011;890;48.158;11.540;2023-02-10T09:17:46;15.30;;;10.83;;
1785;SDS011;890;48.158;11.540;2023-02-10T09:20:12;20.43;;;11.20;;
1785;SDS011;890;48.158;11.540;2023-02-10T09:22:37;17.53;;;11.27;;
1785;SDS011;890;48.158;11.540;2023-02-10T09:25:03;16.83;;;11.83;;
1785;SDS011;890;48.158;11.540;2023-02-10T09:27:29;19.07;;;12.67;;
1785;SDS011;890;48.158;11.540;2023-02-10T09:29:55;21.90;;;13.93;;
1785;SDS011;890;48.158;11.540;2023-02-10T09:32:20;20.00;;;13.47;;
1785;SDS011;890;48.158;11.540;2023-02-10T09:34:46;21.90;;;14.53;;
1785;SDS011;890;48.158;11.540;2023-02-10T09:37:12;19.93;;;13.53;;
1785;SDS011;890;48.158;11.540;2023-02-10T09:39:37;20.33;;;13.93;;
1785;SDS011;890;48.158;11.540;2023-02-10T09:42:12;20.07;;;12.33;;
1785;SDS011;890;48.158;11.540;2023-02-10T09:45:03;24.10;;;13.87;;
1785;SDS011;890;48.158;11.540;2023-02-10T09:50:30;20.30;;;14.43;;
1785;SDS011;890;48.158;11.540;2023-02-10T09:53:01;16.53;;;11.50;;
1785;SDS011;890;48.158;11.540;2023-02-10T09:55:45;19.13;;;12.27;;
1785;SDS011;890;48.158;11.540;2023-02-10T10:01:14;23.20;;;13.97;;
1785;SDS011;890;48.158;11.540;2023-02-10T10:03:57;28.27;;;17.37;;
1785;SDS011;890;48.158;11.540;2023-02-10T10:06:36;24.47;;;14.93;;
1785;SDS011;890;48.158;11.540;2023-02-10T10:11:41;23.07;;;14.90;;
1785;SDS011;890;48.158;11.540;2023-02-10T10:14:27;22.40;;;14.60;;
1785;SDS011;890;48.158;11.540;2023-02-10T10:16:58;28.07;;;15.60;;
1785;SDS011;890;48.158;11.540;2023-02-10T10:19:50;24.30;;;17.30;;
1785;SDS011;890;48.158;11.540;2023-02-10T10:22:46;24.57;;;15.30;;
1785;SDS011;890;48.158;11.540;2023-02-10T10:33:40;25.07;;;16.10;;
1785;SDS011;890;48.158;11.540;2023-02-10T10:36:22;23.57;;;15.00;;
1785;SDS011;890;48.158;11.540;2023-02-10T10:38:55;24.90;;;15.77;;
1785;SDS011;890;48.158;11.540;2023-02-10T10:41:25;25.67;;;15.70;;
1785;SDS011;890;48.158;11.540;2023-02-10T10:43:56;24.00;;;16.60;;
1785;SDS011;890;48.158;11.540;2023-02-10T10:46:30;26.27;;;17.63;;
1785;SDS011;890;48.158;11.540;2023-02-10T10:49:23;21.60;;;15.20;;
1785;SDS011;890;48.158;11.540;2023-02-10T10:51:49;24.70;;;17.73;;
1785;SDS011;890;48.158;11.540;2023-02-10T10:54:15;22.60;;;15.17;;
1785;SDS011;890;48.158;11.540;2023-02-10T10:56:49;22.60;;;16.67;;
1785;SDS011;890;48.158;11.540;2023-02-10T10:59:29;23.33;;;15.73;;
1785;SDS011;890;48.158;11.540;2023-02-10T11:02:10;26.50;;;17.20;;
1785;SDS011;890;48.158;11.540;2023-02-10T11:04:43;26.00;;;17.40;;
1785;SDS011;890;48.158;11.540;2023-02-10T11:07:11;26.57;;;17.23;;
1785;SDS011;890;48.158;11.540;2023-02-10T11:09:48;24.00;;;15.20;;
1785;SDS011;890;48.158;11.540;2023-02-10T11:14:46;24.07;;;17.93;;
1785;SDS011;890;48.158;11.540;2023-02-10T11:22:36;25.17;;;16.30;;
1785;SDS011;890;48.158;11.540;2023-02-10T11:25:03;27.00;;;17.80;;
1785;SDS011;890;48.158;11.540;2023-02-10T11:27:54;21.63;;;15.77;;
1785;SDS011;890;48.158;11.540;2023-02-10T11:30:24;24.07;;;15.57;;
1785;SDS011;890;48.158;11.540;2023-02-10T11:32:52;22.90;;;13.77;;
1785;SDS011;890;48.158;11.540;2023-02-10T11:35:18;19.47;;;14.53;;
1785;SDS011;890;48.158;11.540;2023-02-10T11:37:43;29.73;;;17.97;;
1785;SDS011;890;48.158;11.540;2023-02-10T11:40:18;26.53;;;16.80;;
1785;SDS011;890;48.158;11.540;2023-02-10T11:43:04;25.67;;;16.57;;
1785;SDS011;890;48.158;11.540;2023-02-10T11:45:34;21.10;;;15.90;;
1785;SDS011;890;48.158;11.540;2023-02-10T11:48:04;25.70;;;13.57;;
1785;SDS011;890;48.158;11.540;2023-02-10T11:50:41;18.10;;;12.70;;
1785;SDS011;890;48.158;11.540;2023-02-10T11:53:29;20.70;;;14.17;;
1785;SDS011;890;48.158;11.540;2023-02-10T11:56:01;26.53;;;15.27;;
1785;SDS011;890;48.158;11.540;2023-02-10T11:59:33;19.47;;;13.80;;
1785;SDS011;890;48.158;11.540;2023-02-10T12:05:07;20.40;;;15.20;;
1785;SDS011;890;48.158;11.540;2023-02-10T12:10:45;19.83;;;13.33;;
1785;SDS011;890;48.158;11.540;2023-02-10T12:13:37;18.03;;;14.00;;
1785;SDS011;890;48.158;11.540;2023-02-10T12:35:49;16.50;;;12.27;;
1785;SDS011;890;48.158;11.540;2023-02-10T12:38:55;18.00;;;10.93;;
1785;SDS011;890;48.158;11.540;2023-02-10T12:52:25;20.00;;;14.07;;
1785;SDS011;890;48.158;11.540;2023-02-10T12:57:43;21.97;;;13.90;;
1785;SDS011;890;48.158;11.540;2023-02-10T13:02:48;19.73;;;13.80;;
1785;SDS011;890;48.158;11.540;2023-02-10T13:05:25;17.73;;;12.80;;
1785;SDS011;890;48.158;11.540;2023-02-10T13:08:02;17.87;;;12.83;;
1785;SDS011;890;48.158;11.540;2023-02-10T13:10:48;20.40;;;13.27;;
1785;SDS011;890;48.158;11.540;2023-02-10T13:13:22;20.50;;;13.27;;
1785;SDS011;890;48.158;11.540;2023-02-10T13:18:32;15.10;;;10.30;;
1785;SDS011;890;48.158;11.540;2023-02-10T13:23:48;16.47;;;10.70;;
1785;SDS011;890;48.158;11.540;2023-02-10T13:34:34;17.17;;;12.03;;
1785;SDS011;890;48.158;11.540;2023-02-10T13:37:06;20.77;;;14.17;;
1785;SDS011;890;48.158;11.540;2023-02-10T13:39:57;20.63;;;12.57;;
1785;SDS011;890;48.158;11.540;2023-02-10T13:42:28;18.83;;;12.97;;
1785;SDS011;890;48.158;11.540;2023-02-10T13:45:14;16.37;;;13.30;;
1785;SDS011;890;48.158;11.540;2023-02-10T13:47:47;18.70;;;12.53;;
1785;SDS011;890;48.158;11.540;2023-02-10T13:53:25;19.77;;;14.33;;
1785;SDS011;890;48.158;11.540;2023-02-10T13:56:01;19.70;;;13.83;;
1785;SDS011;890;48.158;11.540;2023-02-10T13:58:53;18.47;;;14.10;;
1785;SDS011;890;48.158;11.540;2023-02-10T14:04:25;22.70;;;15.70;;
1785;SDS011;890;48.158;11.540;2023-02-10T14:06:49;20.13;;;12.77;;
1785;SDS011;890;48.158;11.540;2023-02-10T14:11:54;18.57;;;12.97;;
1785;SDS011;890;48.158;11.540;2023-02-10T14:17:01;24.30;;;15.27;;
1785;SDS011;890;48.158;11.540;2023-02-10T14:19:32;25.67;;;17.70;;
1785;SDS011;890;48.158;11.540;2023-02-10T14:21:58;25.03;;;17.83;;
1785;SDS011;890;48.158;11.540;2023-02-10T14:24:43;32.13;;;21.57;;
1785;SDS011;890;48.158;11.540;2023-02-10T14:27:10;23.27;;;15.97;;
1785;SDS011;890;48.158;11.540;2023-02-10T14:29:39;24.63;;;15.50;;
1785;SDS011;890;48.158;11.540;2023-02-10T14:32:13;25.87;;;15.83;;
1785;SDS011;890;48.158;11.540;2023-02-10T14:34:40;23.53;;;17.17;;
1785;SDS011;890;48.158;11.540;2023-02-10T14:37:16;24.60;;;17.17;;
1785;SDS011;890;48.158;11.540;2023-02-10T14:40:00;22.97;;;16.10;;
1785;SDS011;890;48.158;11.540;2023-02-10T14:42:29;22.27;;;15.30;;
1785;SDS011;890;48.158;11.540;2023-02-10T14:44:57;24.40;;;16.03;;
1785;SDS011;890;48.158;11.540;2023-02-10T14:47:26;21.10;;;16.43;;
1785;SDS011;890;48.158;11.540;2023-02-10T14:50:00;20.97;;;12.33;;
1785;SDS011;890;48.158;11.540;2023-02-10T14:52:30;20.73;;;12.93;;
1785;SDS011;890;48.158;11.540;2023-02-10T14:54:57;22.13;;;15.73;;
1785;SDS011;890;48.158;11.540;2023-02-10T14:57:27;22.80;;;15.70;;
1785;SDS011;890;48.158;11.540;2023-02-10T14:59:59;22.13;;;16.70;;
1785;SDS011;890;48.158;11.540;2023-02-10T15:02:26;25.50;;;18.30;;
1785;SDS011;890;48.158;11.540;2023-02-10T15:04:57;22.90;;;17.83;;
1785;SDS011;890;48.158;11.540;2023-02-10T15:07:26;23.97;;;16.87;;
1785;SDS011;890;48.158;11.540;2023-02-10T15:09:57;26.03;;;18.03;;
1785;SDS011;890;48.158;11.540;2023-02-10T15:12:30;26.23;;;17.63;;
1785;SDS011;890;48.158;11.540;2023-02-10T15:15:05;20.50;;;16.47;;
1785;SDS011;890;48.158;11.540;2023-02-10T15:22:43;26.90;;;18.87;;
1785;SDS011;890;48.158;11.540;2023-02-10T15:27:55;23.23;;;16.37;;
1785;SDS011;890;48.158;11.540;2023-02-10T15:30:28;25.70;;;17.97;;
1785;SDS011;890;48.158;11.540;2023-02-10T15:32:55;25.93;;;19.30;;
1785;SDS011;890;48.158;11.540;2023-02-10T15:35:23;21.33;;;17.30;;
1785;SDS011;890;48.158;11.540;2023-02-10T15:37:51;25.90;;;18.47;;
1785;SDS011;890;48.158;11.540;2023-02-10T15:40:23;23.03;;;18.80;;
1785;SDS011;890;48.158;11.540;2023-02-10T15:42:55;22.83;;;17.20;;
1785;SDS011;890;48.158;11.540;2023-02-10T15:45:29;24.03;;;18.30;;
1785;SDS011;890;48.158;11.540;2023-02-10T15:50:48;23.37;;;18.43;;
1785;SDS011;890;48.158;11.540;2023-02-10T15:53:18;20.57;;;16.60;;
1785;SDS011;890;48.158;11.540;2023-02-10T15:55:45;25.77;;;18.97;;
1785;SDS011;890;48.158;11.540;2023-02-10T15:58:12;27.10;;;19.67;;
1785;SDS011;890;48.158;11.540;2023-02-10T16:00:40;25.93;;;19.00;;
1785;SDS011;890;48.158;11.540;2023-02-10T16:03:10;23.73;;;19.10;;
1785;SDS011;890;48.158;11.540;2023-02-10T16:05:37;25.77;;;20.53;;
1785;SDS011;890;48.158;11.540;2023-02-10T16:08:09;32.80;;;25.03;;
1785;SDS011;890;48.158;11.540;2023-02-10T16:10:46;24.17;;;18.70;;
1785;SDS011;890;48.158;11.540;2023-02-10T16:13:13;21.90;;;18.10;;
1785;SDS011;890;48.158;11.540;2023-02-10T16:15:39;29.13;;;19.00;;
1785;SDS011;890;48.158;11.540;2023-02-10T16:18:06;24.93;;;18.43;;
1785;SDS011;890;48.158;11.540;2023-02-10T16:20:34;28.10;;;19.27;;
1785;SDS011;890;48.158;11.540;2023-02-10T16:23:00;24.93;;;19.77;;
1785;SDS011;890;48.158;11.540;2023-02-10T16:25:26;25.20;;;18.87;;
1785;SDS011;890;48.158;11.540;2023-02-10T16:27:53;28.40;;;20.03;;
1785;SDS011;890;48.158;11.540;2023-02-10T16:30:20;27.63;;;20.90;;
1785;SDS011;890;48.158;11.540;2023-02-10T16:32:51;25.50;;;19.27;;
1785;SDS011;890;48.158;11.540;2023-02-10T16:35:17;26.70;;;20.30;;
1785;SDS011;890;48.158;11.540;2023-02-10T16:37:43;28.97;;;21.60;;
1785;SDS011;890;48.158;11.540;2023-02-10T16:40:12;28.40;;;21.30;;
1785;SDS011;890;48.158;11.540;2023-02-10T16:42:46;25.70;;;21.37;;
1785;SDS011;890;48.158;11.540;2023-02-10T16:45:13;35.17;;;22.97;;
1785;SDS011;890;48.158;11.540;2023-02-10T16:47:38;30.30;;;22.67;;
1785;SDS011;890;48.158;11.540;2023-02-10T16:50:05;32.80;;;22.97;;
1785;SDS011;890;48.158;11.540;2023-02-10T16:52:31;34.47;;;24.20;;
1785;SDS011;890;48.158;11.540;2023-02-10T16:54:56;34.73;;;24.60;;
1785;SDS011;890;48.158;11.540;2023-02-10T16:57:22;42.37;;;28.93;;
1785;SDS011;890;48.158;11.540;2023-02-10T16:59:48;37.80;;;27.27;;
1785;SDS011;890;48.158;11.540;2023-02-10T17:02:14;35.97;;;25.20;;
1785;SDS011;890;48.158;11.540;2023-02-10T17:04:39;38.80;;;27.40;;
1785;SDS011;890;48.158;11.540;2023-02-10T17:07:05;36.77;;;27.57;;
1785;SDS011;890;48.158;11.540;2023-02-10T17:09:31;31.37;;;22.90;;
1785;SDS011;890;48.158;11.540;2023-02-10T17:11:57;31.67;;;23.10;;
1785;SDS011;890;48.158;11.540;2023-02-10T17:14:23;29.93;;;23.40;;
1785;SDS011;890;48.158;11.540;2023-02-10T17:16:49;33.27;;;22.87;;
1785;SDS011;890;48.158;11.540;2023-02-10T17:19:17;32.77;;;23.00;;
1785;SDS011;890;48.158;11.540;2023-02-10T17:21:44;32.80;;;23.97;;